KBTP

Pittsburgh / Butler Regional Airport

Butler, Pennsylvania, USA
METAR KBTP 240056Z AUTO 00000KT 10SM CLR 19/12 A3016 RMK AO2 SLP217 T01890117
Observed Flight Rules
May-24 @ 00:56 UTC (an hour ago) Visual Flight Rules
Visibility Clouds
10 miles
  • Clear skies
Temperatures Readings
Current 19°C / 66°F
Dewpoint 12°C / 54°F
Humidity 64%
Altimeter 30.16" Hg
Pressure 1021.7 hPa
Elevation 380
METAR KBTP 240056Z AUTO 00000KT 10SM CLR 19/12 A3016 RMK AO2 SLP217 T01890117
Observed Flight Rules
May-24 @ 00:56 UTC
(an hour ago)
VFR
Clouds
  • Clear skies
Temperature Dewpoint
19°C / 66°F 12°C / 54°F
Humidity Altimeter Pressure
64% 30.16" Hg 1021.7 hPa